createdAt,value
2022-11-05T00:02:27.661Z,0.55
2022-11-05T00:05:12.737Z,0.60
2022-11-05T00:08:06.304Z,0.47
2022-11-05T00:10:37.013Z,0.68
2022-11-05T00:13:24.168Z,0.40
2022-11-05T00:16:12.750Z,0.50
2022-11-05T00:18:39.302Z,0.55
2022-11-05T00:21:26.267Z,0.60
2022-11-05T00:24:11.150Z,0.43
2022-11-05T00:26:37.627Z,0.50
2022-11-05T00:29:04.133Z,0.52
2022-11-05T00:31:32.321Z,0.38
2022-11-05T00:33:58.785Z,0.50
2022-11-05T00:36:25.266Z,0.30
2022-11-05T00:38:51.753Z,0.50
2022-11-05T00:41:18.468Z,0.57
2022-11-05T00:44:03.276Z,0.50
2022-11-05T00:46:31.712Z,0.47
2022-11-05T00:49:16.516Z,0.40
2022-11-05T00:51:42.988Z,0.60
2022-11-05T00:54:09.438Z,0.40
2022-11-05T00:56:36.137Z,0.50
2022-11-05T00:59:02.575Z,0.50
2022-11-05T01:01:29.118Z,0.50
2022-11-05T01:03:55.740Z,0.70
2022-11-05T01:06:22.225Z,0.47
2022-11-05T01:08:48.736Z,0.50
2022-11-05T01:11:37.244Z,0.30
2022-11-05T01:14:07.701Z,0.50
2022-11-05T01:16:34.847Z,0.63
2022-11-05T01:19:02.495Z,0.60
2022-11-05T01:21:28.955Z,0.70
2022-11-05T01:23:55.447Z,0.60
2022-11-05T01:26:21.943Z,0.60
2022-11-05T01:28:52.761Z,0.50
2022-11-05T01:31:19.565Z,0.60
2022-11-05T01:33:46.060Z,0.77
2022-11-05T01:36:12.978Z,0.63
2022-11-05T01:38:39.515Z,0.60
2022-11-05T01:41:06.575Z,0.70
2022-11-05T01:43:52.278Z,0.93
2022-11-05T01:46:29.242Z,0.63
2022-11-05T01:49:03.295Z,0.60
2022-11-05T01:51:30.961Z,0.70
2022-11-05T01:54:02.863Z,0.50
2022-11-05T01:56:40.462Z,0.50
2022-11-05T01:59:13.412Z,0.47
2022-11-05T02:06:57.148Z,0.70
2022-11-05T02:09:30.240Z,0.60
2022-11-05T02:11:57.434Z,0.50
2022-11-05T02:14:24.097Z,0.43
2022-11-05T02:17:05.081Z,0.40
2022-11-05T02:19:39.965Z,0.60
2022-11-05T02:22:56.734Z,0.40
2022-11-05T02:25:44.742Z,0.43
2022-11-05T02:28:53.232Z,0.50
2022-11-05T02:31:47.220Z,0.55
2022-11-05T02:34:35.568Z,0.60
2022-11-05T02:37:09.941Z,0.50
2022-11-05T02:39:44.530Z,0.60
2022-11-05T02:42:34.798Z,0.50
2022-11-05T02:45:25.489Z,0.60
2022-11-05T02:48:17.151Z,0.50
2022-11-05T02:50:48.727Z,0.47
2022-11-05T02:53:24.926Z,0.52
2022-11-05T02:56:04.327Z,0.57
2022-11-05T02:58:34.100Z,0.50
2022-11-05T03:01:02.073Z,0.65
2022-11-05T03:03:39.473Z,0.52
2022-11-05T03:06:10.713Z,0.60
2022-11-05T03:08:58.768Z,0.50
2022-11-05T03:11:29.136Z,0.55
2022-11-05T03:14:36.418Z,0.50
2022-11-05T03:17:45.034Z,0.60
2022-11-05T03:20:25.977Z,0.65
2022-11-05T03:23:39.656Z,0.57
2022-11-05T03:26:10.472Z,0.50
2022-11-05T03:28:43.147Z,0.70
2022-11-05T03:31:13.602Z,0.70
2022-11-05T03:33:43.421Z,0.60
2022-11-05T03:36:17.334Z,0.50
2022-11-05T03:38:49.021Z,0.60
2022-11-05T03:41:16.244Z,0.63
2022-11-05T03:43:47.005Z,1.08
2022-11-05T03:46:29.758Z,0.90
2022-11-05T03:48:59.227Z,0.90
2022-11-05T03:51:29.582Z,0.90
2022-11-05T03:53:59.544Z,1.00
2022-11-05T03:56:28.938Z,0.90
2022-11-05T03:58:59.051Z,1.10
2022-11-05T04:01:28.889Z,1.10
2022-11-05T04:03:55.542Z,1.10
2022-11-05T04:06:40.478Z,1.02
2022-11-05T04:09:25.779Z,0.80
2022-11-05T04:12:10.497Z,1.00
2022-11-05T04:14:37.084Z,0.93
2022-11-05T04:17:12.268Z,0.98
2022-11-05T04:19:59.198Z,1.10
2022-11-05T04:22:45.702Z,1.10
2022-11-05T04:25:13.433Z,1.00
2022-11-05T04:27:40.312Z,1.10
2022-11-05T04:30:19.559Z,0.85
2022-11-05T04:33:11.036Z,1.00
2022-11-05T04:35:41.022Z,0.70
2022-11-05T04:38:12.628Z,1.05
2022-11-05T04:40:39.111Z,1.00
2022-11-05T04:43:14.662Z,1.00
2022-11-05T04:45:42.225Z,1.00
2022-11-05T04:48:12.614Z,1.05
2022-11-05T04:50:39.419Z,0.90
2022-11-05T04:53:06.026Z,1.10
2022-11-05T04:55:32.510Z,1.00
2022-11-05T04:57:59.045Z,1.05
2022-11-05T05:00:25.723Z,1.20
2022-11-05T05:02:52.306Z,0.80
2022-11-05T05:05:18.870Z,1.20
2022-11-05T05:07:45.699Z,0.70
2022-11-05T05:10:12.460Z,1.00
2022-11-05T05:12:39.153Z,1.00
2022-11-05T05:15:06.122Z,0.95
2022-11-05T05:17:32.791Z,0.98
2022-11-05T05:20:17.715Z,0.85
2022-11-05T05:22:44.224Z,0.80
2022-11-05T05:25:10.799Z,0.80
2022-11-05T05:27:37.272Z,0.80
2022-11-05T05:30:04.240Z,0.70
2022-11-05T05:32:30.729Z,0.98
2022-11-05T05:34:57.244Z,0.88
2022-11-05T05:37:23.882Z,0.80
2022-11-05T05:39:50.470Z,0.80
2022-11-05T05:42:22.861Z,0.70
2022-11-05T05:44:49.337Z,1.10
2022-11-05T05:47:15.904Z,1.00
2022-11-05T05:49:42.424Z,0.90
2022-11-05T05:52:08.903Z,0.80
2022-11-05T05:54:39.835Z,1.00
2022-11-05T05:57:12.466Z,1.00
2022-11-05T05:59:38.989Z,0.80
2022-11-05T06:02:05.563Z,0.85
2022-11-05T06:04:32.098Z,0.90
2022-11-05T06:06:58.587Z,0.75
2022-11-05T06:09:25.305Z,0.80
2022-11-05T06:11:53.570Z,0.90
2022-11-05T06:14:20.077Z,1.17
2022-11-05T06:16:46.609Z,1.50
2022-11-05T06:19:13.142Z,1.20
2022-11-05T06:21:39.632Z,2.92
2022-11-05T06:24:06.683Z,2.42
2022-11-05T06:26:33.238Z,2.35
2022-11-05T06:28:59.719Z,2.00
2022-11-05T06:31:26.222Z,1.90
2022-11-05T06:33:52.991Z,2.20
2022-11-05T06:36:20.277Z,2.38
2022-11-05T06:38:47.087Z,2.15
2022-11-05T06:41:13.758Z,2.25
2022-11-05T06:43:40.335Z,2.72
2022-11-05T06:46:07.625Z,3.13
2022-11-05T06:48:34.680Z,3.30
2022-11-05T06:51:01.326Z,3.75
2022-11-05T06:53:28.264Z,3.90
2022-11-05T06:55:54.932Z,4.00
2022-11-05T06:58:23.799Z,4.10
2022-11-05T07:00:50.349Z,4.25
2022-11-05T07:03:16.840Z,5.18
2022-11-05T07:05:47.885Z,4.93
2022-11-05T07:08:15.133Z,4.57
2022-11-05T07:10:41.839Z,5.88
2022-11-05T07:13:10.749Z,5.13
2022-11-05T07:15:37.988Z,5.63
2022-11-05T07:18:07.355Z,6.45
2022-11-05T07:23:14.242Z,7.28
2022-11-05T07:25:42.155Z,7.95
2022-11-05T07:28:11.155Z,7.78
2022-11-05T07:30:38.094Z,8.02
2022-11-05T07:33:04.906Z,7.95
2022-11-05T07:35:31.663Z,9.32
2022-11-05T07:37:58.320Z,9.02
2022-11-05T07:40:28.087Z,9.18
2022-11-05T07:42:57.403Z,9.20
2022-11-05T07:48:03.203Z,9.15
2022-11-05T07:50:35.224Z,8.20
2022-11-05T07:53:02.502Z,9.30
2022-11-05T07:55:29.528Z,8.88
2022-11-05T07:57:56.206Z,8.95
2022-11-05T08:00:24.917Z,9.35
2022-11-05T08:03:09.359Z,9.10
2022-11-05T08:05:43.354Z,8.07
2022-11-05T08:08:11.286Z,9.90
2022-11-05T08:10:38.713Z,9.90
2022-11-05T08:13:06.275Z,8.20
2022-11-05T08:15:34.043Z,8.90
2022-11-05T08:18:03.375Z,9.15
2022-11-05T08:20:30.518Z,9.60
2022-11-05T08:22:59.434Z,11.27
2022-11-05T08:25:26.800Z,11.98
2022-11-05T08:27:57.332Z,12.25
2022-11-05T08:30:24.029Z,11.10
2022-11-05T08:32:51.009Z,11.65
2022-11-05T08:35:17.615Z,11.13
2022-11-05T08:37:44.086Z,12.48
2022-11-05T08:40:10.971Z,12.63
2022-11-05T08:42:37.451Z,11.05
2022-11-05T08:45:04.405Z,10.75
2022-11-05T08:47:31.201Z,11.05
2022-11-05T08:49:57.701Z,11.75
2022-11-05T08:52:24.199Z,12.60
2022-11-05T08:54:50.648Z,10.00
2022-11-05T08:57:17.090Z,10.10
2022-11-05T08:59:44.062Z,9.13
2022-11-05T09:02:13.499Z,9.35
2022-11-05T09:04:40.056Z,8.23
2022-11-05T09:07:06.641Z,8.20
2022-11-05T09:09:33.168Z,7.72
2022-11-05T09:12:12.321Z,8.35
2022-11-05T09:14:39.495Z,8.07
2022-11-05T09:17:17.756Z,7.68
2022-11-05T09:19:44.458Z,9.23
2022-11-05T09:22:22.647Z,7.97
2022-11-05T09:24:49.143Z,7.75
2022-11-05T09:27:15.717Z,8.50
2022-11-05T09:29:42.444Z,8.65
2022-11-05T09:32:09.427Z,9.23
2022-11-05T09:34:39.778Z,9.40
2022-11-05T09:37:06.294Z,7.80
2022-11-05T09:39:32.811Z,8.25
2022-11-05T09:42:06.916Z,8.43
2022-11-05T09:44:51.781Z,7.60
2022-11-05T09:47:27.733Z,9.23
2022-11-05T09:49:56.698Z,9.25
2022-11-05T09:52:29.399Z,8.93
2022-11-05T09:54:57.158Z,9.45
2022-11-05T09:57:28.531Z,8.77
2022-11-05T10:00:02.061Z,9.00
2022-11-05T10:02:35.957Z,9.60
2022-11-05T10:05:10.029Z,7.45
2022-11-05T10:07:50.777Z,7.82
2022-11-05T10:10:45.243Z,8.30
2022-11-05T10:13:29.896Z,8.05
2022-11-05T10:16:25.661Z,6.95
2022-11-05T10:19:10.140Z,7.68
2022-11-05T10:22:04.811Z,6.55
2022-11-05T10:24:27.286Z,7.38
2022-11-05T10:26:55.182Z,6.88
2022-11-05T10:29:33.072Z,7.50
2022-11-05T10:32:07.268Z,7.03
2022-11-05T10:34:37.142Z,6.43
2022-11-05T10:37:04.611Z,6.20
2022-11-05T10:39:33.997Z,5.25
2022-11-05T10:42:09.326Z,6.53
2022-11-05T10:44:48.926Z,5.70
2022-11-05T10:47:45.001Z,6.03
2022-11-05T10:50:21.329Z,5.40
2022-11-05T10:53:28.884Z,5.25
2022-11-05T10:55:58.560Z,5.00
2022-11-05T10:58:35.300Z,4.13
2022-11-05T11:01:06.294Z,5.05
2022-11-05T11:03:47.878Z,5.50
2022-11-05T11:06:37.863Z,4.85
2022-11-05T11:09:08.530Z,4.65
2022-11-05T11:11:40.669Z,4.63
2022-11-05T11:14:09.967Z,4.55
2022-11-05T11:16:39.318Z,4.70
2022-11-05T11:19:27.514Z,4.30
2022-11-05T11:22:13.845Z,3.70
2022-11-05T11:24:45.169Z,4.47
2022-11-05T11:27:25.693Z,4.70
2022-11-05T11:30:01.214Z,4.00
2022-11-05T11:32:37.972Z,4.00
2022-11-05T11:35:06.862Z,4.10
2022-11-05T11:37:41.799Z,4.07
2022-11-05T11:40:21.995Z,4.50
2022-11-05T11:42:55.758Z,4.00
2022-11-05T11:45:36.785Z,4.65
2022-11-05T11:48:14.492Z,5.05
2022-11-05T11:50:45.675Z,5.10
2022-11-05T11:53:21.500Z,4.38
2022-11-05T11:58:50.777Z,4.05
2022-11-05T12:01:35.606Z,5.60
2022-11-05T12:04:39.729Z,4.18
2022-11-05T12:07:24.913Z,3.95
2022-11-05T12:10:04.449Z,3.30
2022-11-05T12:12:47.438Z,3.70
2022-11-05T12:15:38.297Z,3.40
2022-11-05T12:18:09.888Z,3.20
2022-11-05T12:21:08.384Z,3.08
2022-11-05T12:24:05.463Z,3.50
2022-11-05T12:26:50.117Z,3.75
2022-11-05T12:29:31.476Z,3.05
2022-11-05T12:32:20.234Z,3.30
2022-11-05T12:35:16.259Z,2.50
2022-11-05T12:37:53.505Z,3.28
2022-11-05T12:40:46.877Z,2.92
2022-11-05T12:43:24.168Z,3.10
2022-11-05T12:46:09.772Z,2.90
2022-11-05T12:48:53.751Z,2.60
2022-11-05T12:52:08.037Z,2.60
2022-11-05T12:54:55.831Z,2.72
2022-11-05T12:57:23.463Z,2.63
2022-11-05T13:00:19.652Z,2.67
2022-11-05T13:02:58.077Z,2.95
2022-11-05T13:05:35.057Z,2.45
2022-11-05T13:08:29.831Z,2.42
2022-11-05T13:11:01.317Z,2.30
2022-11-05T13:13:42.903Z,2.33
2022-11-05T13:16:33.700Z,2.30
2022-11-05T13:19:17.603Z,2.30
2022-11-05T13:21:51.776Z,2.28
2022-11-05T13:24:24.296Z,2.30
2022-11-05T13:27:15.900Z,2.42
2022-11-05T13:29:56.519Z,2.42
2022-11-05T13:32:35.802Z,2.22
2022-11-05T13:35:05.868Z,2.10
2022-11-05T13:37:58.160Z,1.85
2022-11-05T13:40:43.044Z,1.83
2022-11-05T13:43:21.771Z,1.77
2022-11-05T13:46:05.526Z,1.50
2022-11-05T13:49:12.715Z,1.60
2022-11-05T13:51:48.889Z,1.50
2022-11-05T13:54:55.334Z,1.42
2022-11-05T13:57:46.203Z,1.50
2022-11-05T14:00:18.491Z,1.75
2022-11-05T14:02:54.879Z,1.88
2022-11-05T14:05:29.522Z,2.20
2022-11-05T14:07:58.817Z,2.00
2022-11-05T14:10:34.108Z,2.72
2022-11-05T14:13:23.394Z,2.15
2022-11-05T14:16:08.988Z,1.70
2022-11-05T14:18:46.044Z,1.90
2022-11-05T14:21:49.780Z,1.63
2022-11-05T14:24:44.186Z,1.60
2022-11-05T14:27:13.374Z,1.30
2022-11-05T14:29:43.681Z,1.50
2022-11-05T14:32:43.148Z,1.33
2022-11-05T14:35:15.382Z,1.23
2022-11-05T14:37:52.578Z,1.38
2022-11-05T14:40:21.776Z,1.60
2022-11-05T14:42:54.123Z,1.30
2022-11-05T14:45:53.645Z,1.70
2022-11-05T14:48:40.981Z,1.15
2022-11-05T14:51:33.303Z,1.23
2022-11-05T14:54:04.171Z,1.00
2022-11-05T14:56:43.466Z,1.30
2022-11-05T14:59:25.268Z,1.73
2022-11-05T15:01:56.992Z,1.48
2022-11-05T15:04:28.953Z,1.40
2022-11-05T15:07:04.602Z,1.30
2022-11-05T15:09:36.931Z,1.42
2022-11-05T15:12:24.680Z,1.40
2022-11-05T15:15:20.406Z,1.05
2022-11-05T15:18:15.498Z,1.40
2022-11-05T15:20:46.009Z,1.23
2022-11-05T15:23:16.110Z,1.55
2022-11-05T15:25:54.949Z,1.10
2022-11-05T15:28:30.719Z,1.20
2022-11-05T15:33:26.300Z,0.90
2022-11-05T15:35:52.841Z,1.10
2022-11-05T15:38:29.762Z,1.52
2022-11-05T15:41:01.351Z,1.30
2022-11-05T15:43:28.077Z,1.30
2022-11-05T15:46:23.006Z,1.20
2022-11-05T15:48:54.997Z,1.60
2022-11-05T15:51:23.293Z,1.60
2022-11-05T15:56:51.516Z,1.85
2022-11-05T15:59:20.430Z,1.70
2022-11-05T16:01:59.919Z,1.70
2022-11-05T16:04:30.507Z,2.20
2022-11-05T16:07:00.641Z,1.83
2022-11-05T16:09:34.193Z,1.83
2022-11-05T16:12:13.056Z,1.80
2022-11-05T16:14:41.950Z,2.15
2022-11-05T16:17:20.599Z,2.30
2022-11-05T16:19:48.643Z,1.92
2022-11-05T16:22:15.687Z,1.70
2022-11-05T16:24:42.774Z,2.80
2022-11-05T16:27:27.321Z,3.50
2022-11-05T16:29:57.343Z,3.47
2022-11-05T16:32:31.013Z,3.15
2022-11-05T16:35:01.622Z,3.00
2022-11-05T16:37:41.173Z,2.35
2022-11-05T16:40:18.165Z,2.38
2022-11-05T16:42:48.455Z,2.25
2022-11-05T16:45:17.039Z,2.20
2022-11-05T16:47:44.499Z,2.28
2022-11-05T16:50:16.641Z,2.25
2022-11-05T16:52:45.261Z,2.45
2022-11-05T16:55:12.882Z,3.15
2022-11-05T16:57:39.988Z,2.85
2022-11-05T17:00:11.039Z,2.53
2022-11-05T17:02:37.702Z,2.47
2022-11-05T17:05:04.472Z,2.50
2022-11-05T17:07:30.935Z,2.42
2022-11-05T17:09:57.945Z,2.30
2022-11-05T17:12:26.745Z,2.13
2022-11-05T17:14:53.252Z,2.15
2022-11-05T17:17:19.717Z,2.22
2022-11-05T17:19:46.863Z,2.40
2022-11-05T17:22:13.547Z,2.40
2022-11-05T17:24:40.025Z,2.40
2022-11-05T17:27:06.727Z,2.10
2022-11-05T17:29:35.489Z,2.50
2022-11-05T17:32:01.944Z,2.50
2022-11-05T17:34:28.691Z,2.42
2022-11-05T17:36:55.201Z,2.13
2022-11-05T17:39:23.177Z,2.45
2022-11-05T17:41:54.727Z,2.22
2022-11-05T17:44:21.507Z,2.50
2022-11-05T17:46:47.985Z,2.60
2022-11-05T17:49:14.430Z,2.63
2022-11-05T17:51:40.908Z,2.70
2022-11-05T17:54:07.652Z,2.65
2022-11-05T17:56:40.288Z,2.75
2022-11-05T17:59:10.107Z,2.85
2022-11-05T18:01:41.444Z,3.97
2022-11-05T18:04:09.157Z,3.85
2022-11-05T18:06:39.909Z,3.50
2022-11-05T18:09:09.719Z,3.60
2022-11-05T18:11:37.108Z,4.15
2022-11-05T18:14:07.853Z,3.70
2022-11-05T18:16:35.234Z,4.57
2022-11-05T18:19:01.737Z,4.35
2022-11-05T18:21:28.247Z,5.15
2022-11-05T18:23:59.426Z,6.30
2022-11-05T18:26:25.896Z,5.70
2022-11-05T18:28:52.362Z,5.50
2022-11-05T18:31:25.885Z,6.43
2022-11-05T18:33:56.706Z,6.38
2022-11-05T18:36:26.551Z,5.88
2022-11-05T18:38:53.576Z,6.18
2022-11-05T18:41:20.888Z,5.82
2022-11-05T18:43:47.682Z,5.55
2022-11-05T18:46:35.764Z,5.03
2022-11-05T18:49:01.660Z,5.53
2022-11-05T18:51:28.262Z,5.35
2022-11-05T18:53:57.206Z,6.05
2022-11-05T18:56:24.201Z,5.65
2022-11-05T18:59:14.564Z,6.25
2022-11-05T19:01:42.522Z,5.30
2022-11-05T19:07:05.104Z,4.93
2022-11-05T19:09:37.856Z,4.60
2022-11-05T19:12:07.255Z,4.82
2022-11-05T19:14:34.947Z,4.35
2022-11-05T19:17:02.211Z,7.47
2022-11-05T19:19:28.908Z,4.88
2022-11-05T19:21:55.769Z,3.95
2022-11-05T19:24:25.725Z,4.10
2022-11-05T19:26:52.302Z,5.28
2022-11-05T19:29:18.815Z,5.38
2022-11-05T19:31:46.040Z,4.40
2022-11-05T19:34:14.823Z,4.97
2022-11-05T19:36:42.684Z,4.22
2022-11-05T19:39:12.768Z,3.92
2022-11-05T19:41:39.266Z,3.70
2022-11-05T19:44:06.111Z,3.30
2022-11-05T19:46:32.977Z,5.10
2022-11-05T19:49:00.980Z,4.38
2022-11-05T19:51:29.570Z,4.95
2022-11-05T19:53:56.381Z,6.20
2022-11-05T19:56:26.489Z,7.88
2022-11-05T19:58:53.915Z,8.48
2022-11-05T20:01:22.357Z,6.82
2022-11-05T20:03:49.603Z,6.63
2022-11-05T20:06:19.841Z,6.07
2022-11-05T20:09:19.827Z,5.43
2022-11-05T20:11:40.048Z,5.40
2022-11-05T20:16:57.869Z,5.88
2022-11-05T20:19:24.713Z,5.43
2022-11-05T20:21:51.876Z,4.85
2022-11-05T20:24:24.261Z,5.57
2022-11-05T20:26:52.762Z,5.47
2022-11-05T20:29:19.403Z,5.72
2022-11-05T20:31:45.945Z,5.72
2022-11-05T20:34:14.258Z,6.03
2022-11-05T20:36:45.122Z,4.82
2022-11-05T20:39:12.149Z,4.78
2022-11-05T20:41:38.800Z,5.60
2022-11-05T20:44:05.382Z,5.85
2022-11-05T20:46:32.965Z,5.95
2022-11-05T20:48:59.472Z,6.10
2022-11-05T20:51:25.913Z,5.82
2022-11-05T20:53:57.678Z,6.57
2022-11-05T20:56:27.114Z,5.50
2022-11-05T20:58:55.558Z,5.20
2022-11-05T21:01:22.108Z,5.07
2022-11-05T21:03:48.821Z,5.10
2022-11-05T21:06:15.795Z,5.55
2022-11-05T21:08:43.059Z,5.72
2022-11-05T21:11:11.945Z,5.57
2022-11-05T21:13:38.941Z,5.22
2022-11-05T21:16:07.502Z,5.20
2022-11-05T21:21:15.147Z,5.45
2022-11-05T21:23:42.034Z,6.10
2022-11-05T21:26:12.453Z,6.40
2022-11-05T21:28:40.619Z,5.25
2022-11-05T21:31:07.971Z,5.57
2022-11-05T21:33:34.958Z,5.05
2022-11-05T21:36:07.814Z,5.55
2022-11-05T21:38:34.324Z,6.82
2022-11-05T21:41:02.840Z,6.53
2022-11-05T21:43:55.115Z,5.80
2022-11-05T21:46:21.577Z,5.57
2022-11-05T21:48:50.424Z,5.05
2022-11-05T21:51:35.462Z,4.75
2022-11-05T21:54:24.270Z,4.63
2022-11-05T21:57:10.927Z,5.70
2022-11-05T21:59:51.783Z,7.63
2022-11-05T22:02:22.010Z,5.43
2022-11-05T22:04:52.025Z,5.20
2022-11-05T22:07:21.560Z,5.03
2022-11-05T22:09:48.577Z,4.70
2022-11-05T22:12:15.557Z,5.13
2022-11-05T22:14:42.362Z,6.00
2022-11-05T22:17:09.733Z,4.97
2022-11-05T22:19:36.662Z,5.00
2022-11-05T22:22:06.797Z,4.93
2022-11-05T22:24:34.848Z,4.97
2022-11-05T22:27:04.563Z,4.63
2022-11-05T22:29:31.115Z,4.53
2022-11-05T22:31:59.952Z,4.18
2022-11-05T22:34:26.959Z,4.43
2022-11-05T22:36:55.533Z,5.05
2022-11-05T22:39:22.219Z,5.22
2022-11-05T22:41:49.488Z,8.02
2022-11-05T22:44:21.908Z,9.68
2022-11-05T22:46:48.460Z,10.48
2022-11-05T22:49:15.002Z,7.30
2022-11-05T22:51:41.680Z,6.95
2022-11-05T22:54:14.134Z,7.28
2022-11-05T22:56:42.107Z,5.72
2022-11-05T22:59:12.941Z,5.85
2022-11-05T23:01:39.951Z,5.45
2022-11-05T23:04:06.604Z,6.18
2022-11-05T23:06:52.523Z,5.47
2022-11-05T23:09:41.212Z,5.25
2022-11-05T23:12:29.316Z,7.00
2022-11-05T23:14:57.682Z,6.57
2022-11-05T23:17:45.349Z,6.50
2022-11-05T23:20:33.448Z,8.15
2022-11-05T23:25:39.029Z,9.02
2022-11-05T23:28:10.000Z,8.70
2022-11-05T23:31:01.321Z,8.27
2022-11-05T23:33:36.262Z,8.75
2022-11-05T23:36:21.491Z,10.07
2022-11-05T23:38:48.181Z,8.68
2022-11-05T23:41:36.897Z,8.50
2022-11-05T23:44:22.144Z,8.88
2022-11-05T23:47:07.412Z,9.47
2022-11-05T23:49:33.953Z,9.57
2022-11-05T23:52:00.598Z,6.93
2022-11-05T23:54:27.307Z,7.72
2022-11-05T23:56:53.812Z,6.93
2022-11-05T23:59:20.565Z,6.35
